SondeTracker

Meteorological Radiosondes Database

Operations

Sounding was ended - last measurement: 2022-12-07 01:18:35z

MAP
About Radiosonde

Number: U3510459

Launch Site:

Type: RS41

AUX: NO

Frequency: 403.000 MHz

Max Speed: 233 km/h at 11507 m

Average Speed: 91.78 km/h

Max Altitude: 28796 m

Average Ascent Speed: 4.86 m/s

Average Descent Speed: 27.14 m/s

Status: UNKNOWN

Status Changes
Launch Site Type AUX Frequency Status Finder Landing Point Description Changes made by
APRS Statistics

Received Frames: 118

First Frame [UTC]: 2022-12-07 00:13:51z

Last Frame [UTC]: 2022-12-07 01:18:35z

Receivers: KF0FCV

Flight Time: 01:04:44 h

Distance From First Measurement: 94.69 km

Nearest City: The Pinery [CO] (US) [12.49 km]

Nearest Hunter: KB3ZOW [25.74 km]

Ground Altitude: 2043 m

Distance from QTH: 0.00 km

APRS Data
Receiver Number Date/Time [UTC] φ λ Course [°] Speed [km/h] Altitude [m] Description
KF0FCVU35104592022-12-07 01:18:3539.3677-104.65593353498Clb=-16.0m/s t=-6.0C h=39.1% p=659.9hPa 403.000 MHz Type=RS41-SGP ser=U3510459 Radiosonde
KF0FCVU35104592022-12-07 01:18:0439.3678-104.65790353763Clb=-14.9m/s t=-8.6C h=44.4% p=637.9hPa 403.000 MHz Type=RS41-SGP ser=U3510459 Radiosonde
KF0FCVU35104592022-12-07 01:17:3339.3672-104.66164434268Clb=-15.8m/s t=-13.0C h=69.2% p=597.4hPa 403.000 MHz Type=RS41-SGP ser=U3510459 Radiosonde
KF0FCVU35104592022-12-07 01:17:0339.3648-104.66652634798Clb=-16.2m/s t=-16.2C h=81.7% p=557.2hPa 403.000 MHz Type=RS41-SGP ser=U3510459 Radiosonde
KF0FCVU35104592022-12-07 01:16:3239.3621-104.67265805264Clb=-15.7m/s t=-19.6C h=78.7% p=523.7hPa 403.000 MHz Type=RS41-SGP ser=U3510459 Radiosonde
KF0FCVU35104592022-12-07 01:16:0039.3599-104.67970935760Clb=-16.6m/s t=-23.6C h=85.3% p=489.4hPa 403.000 MHz Type=RS41-SGP ser=U3510459 Radiosonde
KF0FCVU35104592022-12-07 01:15:3439.358-104.689761076287Clb=-17.8m/s t=-27.0C h=58.1% p=455.4hPa 403.000 MHz Type=RS41-SGP ser=U3510459 Radiosonde
KF0FCVU35104592022-12-07 01:15:0839.3562-104.701801436840Clb=-18.9m/s t=-30.3C h=53.4% p=421.6hPa 403.000 MHz Type=RS41-SGP ser=U3510459 Radiosonde
KF0FCVU35104592022-12-07 01:14:4239.3545-104.716771567428Clb=-19.3m/s t=-34.8C h=50.7% p=388.1hPa 403.000 MHz Type=RS41-SGP ser=U3510459 Radiosonde
KF0FCVU35104592022-12-07 01:14:1639.3509-104.732731808040Clb=-20.7m/s t=-39.5C h=51.9% p=355.3hPa 403.000 MHz Type=RS41-SGP ser=U3510459 Radiosonde
KF0FCVU35104592022-12-07 01:13:4839.3466-104.751732098697Clb=-22.3m/s t=-41.8C h=7.7% p=322.8hPa 403.000 MHz Type=RS41-SGP ser=U3510459 Radiosonde
KF0FCVU35104592022-12-07 01:13:1939.3415-104.771732269399Clb=-23.7m/s t=-45.0C h=11.4% p=291.0hPa 403.000 MHz Type=RS41-SGP ser=U3510459 Radiosonde
KF0FCVU35104592022-12-07 01:12:5039.3361-104.7937022010150Clb=-25.4m/s t=-49.3C h=8.5% p=260.2hPa 403.000 MHz Type=RS41-SGP ser=U3510459 Radiosonde
KF0FCVU35104592022-12-07 01:12:2039.3304-104.8136922010870Clb=-22.1m/s t=-52.5C h=6.9% p=232.8hPa 403.000 MHz Type=RS41-SGP ser=U3510459 Radiosonde
KF0FCVU35104592022-12-07 01:11:4839.3242-104.8347123311507Clb=-20.4m/s t=-57.6C h=7.2% p=210.8hPa 403.000 MHz Type=RS41-SGP ser=U3510459 Radiosonde
KF0FCVU35104592022-12-07 01:11:1739.3193-104.8567219812144Clb=-22.2m/s t=-57.8C h=4.5% p=190.8hPa 403.000 MHz Type=RS41-SGP ser=U3510459 Radiosonde
KF0FCVU35104592022-12-07 01:10:4739.3145-104.8747318012838Clb=-23.0m/s t=-59.6C h=3.6% p=170.9hPa 403.000 MHz Type=RS41-SGP ser=U3510459 Radiosonde
KF0FCVU35104592022-12-07 01:10:1739.3103-104.897016513554Clb=-23.6m/s t=-61.8C h=3.4% p=152.5hPa 403.000 MHz Type=RS41-SGP ser=U3510459 Radiosonde
KF0FCVU35104592022-12-07 01:09:4539.3054-104.9066615714329Clb=-24.9m/s t=-62.4C h=3.0% p=134.7hPa 403.000 MHz Type=RS41-SGP ser=U3510459 Radiosonde
KF0FCVU35104592022-12-07 01:09:1139.3004-104.927015715122Clb=-26.8m/s t=-62.7C h=2.7% p=118.6hPa 403.000 MHz Type=RS41-SGP ser=U3510459 Radiosonde
KF0FCVU35104592022-12-07 01:08:3939.2973-104.9347414415981Clb=-28.9m/s t=-65.1C h=2.7% p=103.2hPa 403.000 MHz Type=RS41-SGP ser=U3510459 Radiosonde
KF0FCVU35104592022-12-07 01:08:0739.2942-104.9477213916901Clb=-30.7m/s t=-66.3C h=2.3% p=88.9hPa 403.000 MHz Type=RS41-SGP ser=U3510459 Radiosonde
KF0FCVU35104592022-12-07 01:07:3339.2913-104.9597612817891Clb=-33.3m/s t=-65.4C h=2.0% p=75.5hPa 403.000 MHz Type=RS41-SGP ser=U3510459 Radiosonde
KF0FCVU35104592022-12-07 01:06:5839.2895-104.971829318973Clb=-36.7m/s t=-58.5C h=1.1% p=63.5hPa 403.000 MHz Type=RS41-SGP ser=U3510459 Radiosonde
KF0FCVU35104592022-12-07 01:06:2439.2899-104.977604120095Clb=-36.3m/s t=-60.7C h=1.1% p=53.2hPa 403.000 MHz Type=RS41-SGP ser=U3510459 Radiosonde
KF0FCVU35104592022-12-07 01:05:4939.2872-104.979444621221Clb=-36.4m/s t=-67.1C h=1.6% p=44.3hPa 403.000 MHz Type=RS41-SGP ser=U3510459 Radiosonde
KF0FCVU35104592022-12-07 01:05:1539.2869-104.98611210422385Clb=-39.5m/s t=-63.4C h=1.5% p=36.7hPa 403.000 MHz Type=RS41-SGP ser=U3510459 Radiosonde
KF0FCVU35104592022-12-07 01:04:4139.2892-104.991942424152Clb=-54.0m/s t=-54.4C h=0.5% p=28.0hPa 403.000 MHz Type=RS41-SGP ser=U3510459 Radiosonde
KF0FCVU35104592022-12-07 01:04:0639.2892-104.9951106925981Clb=-79.0m/s t=-57.0C h=0.7% p=21.3hPa 403.000 MHz Type=RS41-SGP ser=U3510459 Radiosonde
KF0FCVU35104592022-12-07 01:03:3439.2907-105896128308Clb=-62.1m/s t=-57.6C h=0.7% p=14.6hPa 403.000 MHz Type=RS41-SGP ser=U3510459 Radiosonde
KF0FCVU35104592022-12-07 01:03:0339.2905-105.006887428796Clb=6.9m/s t=-58.0C h=0.7% p=13.2hPa 403.000 MHz Type=RS41-SGP ser=U3510459 Radiosonde
KF0FCVU35104592022-12-07 01:02:3339.29-105.011845428590Clb=6.7m/s t=-57.0C h=0.7% p=13.7hPa 403.000 MHz Type=RS41-SGP ser=U3510459 Radiosonde
KF0FCVU35104592022-12-07 01:02:0139.2899-105.016965728363Clb=7.7m/s t=-56.8C h=0.7% p=14.2hPa 403.000 MHz Type=RS41-SGP ser=U3510459 Radiosonde
KF0FCVU35104592022-12-07 01:01:3139.2908-105.0221045928105Clb=8.6m/s t=-55.8C h=0.7% p=14.8hPa 403.000 MHz Type=RS41-SGP ser=U3510459 Radiosonde
KF0FCVU35104592022-12-07 01:00:5939.2923-105.0281115927862Clb=6.9m/s t=-54.7C h=0.6% p=15.3hPa 403.000 MHz Type=RS41-SGP ser=U3510459 Radiosonde
KF0FCVU35104592022-12-07 01:00:5339.2939-105.0331165627655Clb=5.4m/s t=-53.1C h=0.5% p=15.8hPa 403.000 MHz Type=RS41-SGP ser=U3510459 Radiosonde
KF0FCVU35104592022-12-07 01:00:5239.2953-105.0381124127486Clb=5.6m/s t=-52.8C h=0.6% p=16.3hPa 403.000 MHz Type=RS41-SGP ser=U3510459 Radiosonde
KF0FCVU35104592022-12-07 01:00:5039.2973-105.0431264427354Clb=3.2m/s t=-52.4C h=0.6% p=16.6hPa 403.000 MHz Type=RS41-SGP ser=U3510459 Radiosonde
KF0FCVU35104592022-12-07 01:00:4939.2996-105.0481215627238Clb=3.1m/s t=-52.4C h=0.7% p=16.9hPa 403.000 MHz Type=RS41-SGP ser=U3510459 Radiosonde
KF0FCVU35104592022-12-07 01:00:4739.3023-105.0531157227113Clb=3.4m/s t=-52.6C h=0.7% p=17.2hPa 403.000 MHz Type=RS41-SGP ser=U3510459 Radiosonde
KF0FCVU35104592022-12-07 01:00:3939.3043-105.0591037626972Clb=4.2m/s t=-53.6C h=0.8% p=17.6hPa 403.000 MHz Type=RS41-SGP ser=U3510459 Radiosonde
KF0FCVU35104592022-12-07 01:00:3239.3058-105.0661068026798Clb=6.7m/s t=-55.2C h=0.8% p=18.1hPa 403.000 MHz Type=RS41-SGP ser=U3510459 Radiosonde
KF0FCVU35104592022-12-07 01:00:2139.3073-105.0721066926580Clb=6.9m/s t=-56.0C h=0.9% p=18.7hPa 403.000 MHz Type=RS41-SGP ser=U3510459 Radiosonde
KF0FCVU35104592022-12-07 01:00:2039.3084-105.0791067426349Clb=6.7m/s t=-55.9C h=1.0% p=19.4hPa 403.000 MHz Type=RS41-SGP ser=U3510459 Radiosonde
KF0FCVU35104592022-12-07 01:00:1939.3095-105.0871067026139Clb=5.4m/s t=-56.6C h=1.1% p=20.0hPa 403.000 MHz Type=RS41-SGP ser=U3510459 Radiosonde
KF0FCVU35104592022-12-07 01:00:0839.3112-105.0941117825986Clb=3.3m/s t=-59.2C h=1.3% p=20.5hPa 403.000 MHz Type=RS41-SGP ser=U3510459 Radiosonde
KF0FCVU35104592022-12-07 00:59:3239.3124-105.102916925875Clb=2.7m/s t=-60.3C h=1.4% p=20.9hPa 403.000 MHz Type=RS41-SGP ser=U3510459 Radiosonde
KF0FCVU35104592022-12-07 00:58:4839.3123-105.11836325777Clb=4.4m/s t=-63.2C h=1.4% p=21.2hPa 403.000 MHz Type=RS41-SGP ser=U3510459 Radiosonde
KF0FCVU35104592022-12-07 00:58:0639.3118-105.115844425633Clb=5.0m/s t=-65.3C h=1.8% p=21.7hPa 403.000 MHz Type=RS41-SGP ser=U3510459 Radiosonde
KF0FCVU35104592022-12-07 00:57:2539.3121-105.12954325438Clb=7.0m/s t=-63.8C h=1.7% p=22.4hPa 403.000 MHz Type=RS41-SGP ser=U3510459 Radiosonde
KF0FCVU35104592022-12-07 00:56:4339.3119-105.125645425222Clb=7.4m/s t=-62.0C h=1.7% p=23.2hPa 403.000 MHz Type=RS41-SGP ser=U3510459 Radiosonde
KF0FCVU35104592022-12-07 00:56:0139.3107-105.13625924984Clb=6.3m/s t=-60.6C h=1.5% p=24.1hPa 403.000 MHz Type=RS41-SGP ser=U3510459 Radiosonde
KF0FCVU35104592022-12-07 00:55:1939.3092-105.135824124794Clb=5.5m/s t=-60.3C h=1.5% p=24.8hPa 403.000 MHz Type=RS41-SGP ser=U3510459 Radiosonde
KF0FCVU35104592022-12-07 00:54:3839.3088-105.139924824634Clb=4.2m/s t=-59.7C h=1.4% p=25.4hPa 403.000 MHz Type=RS41-SGP ser=U3510459 Radiosonde
KF0FCVU35104592022-12-07 00:53:5539.3093-105.1431084424498Clb=3.4m/s t=-58.7C h=1.5% p=26.0hPa 403.000 MHz Type=RS41-SGP ser=U3510459 Radiosonde
KF0FCVU35104592022-12-07 00:53:1139.31-105.1481073524374Clb=3.6m/s t=-58.2C h=1.6% p=26.5hPa 403.000 MHz Type=RS41-SGP ser=U3510459 Radiosonde
KF0FCVU35104592022-12-07 00:52:2439.3108-105.1511223124260Clb=3.9m/s t=-57.7C h=1.7% p=27.0hPa 403.000 MHz Type=RS41-SGP ser=U3510459 Radiosonde
KF0FCVU35104592022-12-07 00:51:3739.3124-105.1541633024139Clb=4.2m/s t=-57.4C h=1.9% p=27.5hPa 403.000 MHz Type=RS41-SGP ser=U3510459 Radiosonde
KF0FCVU35104592022-12-07 00:50:5139.3148-105.1551663324012Clb=3.5m/s t=-58.2C h=2.0% p=28.1hPa 403.000 MHz Type=RS41-SGP ser=U3510459 Radiosonde
KF0FCVU35104592022-12-07 00:50:0539.3176-105.1571494623908Clb=4.2m/s t=-58.1C h=2.2% p=28.5hPa 403.000 MHz Type=RS41-SGP ser=U3510459 Radiosonde
KF0FCVU35104592022-12-07 00:49:2039.3209-105.161445423795Clb=2.8m/s t=-58.4C h=2.0% p=29.0hPa 403.000 MHz Type=RS41-SGP ser=U3510459 Radiosonde
KF0FCVU35104592022-12-07 00:48:3439.3249-105.1641367423700Clb=2.1m/s t=-62.2C h=2.3% p=29.4hPa 403.000 MHz Type=RS41-SGP ser=U3510459 Radiosonde
KF0FCVU35104592022-12-07 00:47:4739.3291-105.171347023594Clb=3.6m/s t=-61.6C h=2.3% p=29.9hPa 403.000 MHz Type=RS41-SGP ser=U3510459 Radiosonde
KF0FCVU35104592022-12-07 00:46:5539.3332-105.1741446723435Clb=4.3m/s t=-61.1C h=2.3% p=30.8hPa 403.000 MHz Type=RS41-SGP ser=U3510459 Radiosonde
KF0FCVU35104592022-12-07 00:46:0839.3375-105.1771526723271Clb=5.2m/s t=-60.9C h=2.5% p=31.6hPa 403.000 MHz Type=RS41-SGP ser=U3510459 Radiosonde
KF0FCVU35104592022-12-07 00:45:2039.3424-105.181438123114Clb=5.0m/s t=-59.8C h=3.0% p=32.4hPa 403.000 MHz Type=RS41-SGP ser=U3510459 Radiosonde
KF0FCVU35104592022-12-07 00:44:3539.3471-105.1851348522967Clb=5.3m/s t=-58.7C h=3.4% p=33.1hPa 403.000 MHz Type=RS41-SGP ser=U3510459 Radiosonde
KF0FCVU35104592022-12-07 00:43:5439.3515-105.1911289322812Clb=5.8m/s t=-57.8C h=3.5% p=33.9hPa 403.000 MHz Type=RS41-SGP ser=U3510459 Radiosonde
KF0FCVU35104592022-12-07 00:43:2339.3555-105.211111522620Clb=7.0m/s t=-61.9C h=3.4% p=34.9hPa 403.000 MHz Type=RS41-SGP ser=U3510459 Radiosonde
KF0FCVU35104592022-12-07 00:42:5239.3574-105.219410422383Clb=7.5m/s t=-63.8C h=3.8% p=36.2hPa 403.000 MHz Type=RS41-SGP ser=U3510459 Radiosonde
KF0FCVU35104592022-12-07 00:42:2439.3577-105.22879122167Clb=6.1m/s t=-66.3C h=4.4% p=37.5hPa 403.000 MHz Type=RS41-SGP ser=U3510459 Radiosonde
KF0FCVU35104592022-12-07 00:41:5739.3569-105.229749422001Clb=4.5m/s t=-66.4C h=4.5% p=38.6hPa 403.000 MHz Type=RS41-SGP ser=U3510459 Radiosonde
KF0FCVU35104592022-12-07 00:41:5539.3554-105.238738321870Clb=3.5m/s t=-67.4C h=4.7% p=39.4hPa 403.000 MHz Type=RS41-SGP ser=U3510459 Radiosonde
KF0FCVU35104592022-12-07 00:41:4839.3542-105.246736921743Clb=3.4m/s t=-67.4C h=4.5% p=40.2hPa 403.000 MHz Type=RS41-SGP ser=U3510459 Radiosonde
KF0FCVU35104592022-12-07 00:41:4039.3525-105.252777021603Clb=4.0m/s t=-67.3C h=4.6% p=41.2hPa 403.000 MHz Type=RS41-SGP ser=U3510459 Radiosonde
KF0FCVU35104592022-12-07 00:41:3339.3516-105.259787821459Clb=4.7m/s t=-66.8C h=4.6% p=42.1hPa 403.000 MHz Type=RS41-SGP ser=U3510459 Radiosonde
KF0FCVU35104592022-12-07 00:41:3239.3499-105.267697421289Clb=5.9m/s t=-65.8C h=4.6% p=43.4hPa 403.000 MHz Type=RS41-SGP ser=U3510459 Radiosonde
KF0FCVU35104592022-12-07 00:41:3039.3475-105.273537021090Clb=4.6m/s t=-66.6C h=4.9% p=44.8hPa 403.000 MHz Type=RS41-SGP ser=U3510459 Radiosonde
KF0FCVU35104592022-12-07 00:41:2839.3451-105.278525420908Clb=6.0m/s t=-65.8C h=4.8% p=46.2hPa 403.000 MHz Type=RS41-SGP ser=U3510459 Radiosonde
KF0FCVU35104592022-12-07 00:41:2639.343-105.281474320731Clb=5.2m/s t=-64.4C h=4.7% p=47.5hPa 403.000 MHz Type=RS41-SGP ser=U3510459 Radiosonde
KF0FCVU35104592022-12-07 00:41:2539.3412-105.284583520567Clb=4.7m/s t=-64.3C h=4.5% p=48.8hPa 403.000 MHz Type=RS41-SGP ser=U3510459 Radiosonde
KF0FCVU35104592022-12-07 00:41:2339.3402-105.288783120402Clb=5.8m/s t=-65.4C h=4.6% p=50.1hPa 403.000 MHz Type=RS41-SGP ser=U3510459 Radiosonde
KF0FCVU35104592022-12-07 00:41:1439.3407-105.2921044320234Clb=5.6m/s t=-64.4C h=4.7% p=51.6hPa 403.000 MHz Type=RS41-SGP ser=U3510459 Radiosonde
KF0FCVU35104592022-12-07 00:40:3039.342-105.2961165420069Clb=4.9m/s t=-63.5C h=4.8% p=53.0hPa 403.000 MHz Type=RS41-SGP ser=U3510459 Radiosonde
KF0FCVU35104592022-12-07 00:39:4239.3441-105.3011235019913Clb=6.1m/s t=-62.2C h=5.1% p=54.3hPa 403.000 MHz Type=RS41-SGP ser=U3510459 Radiosonde
KF0FCVU35104592022-12-07 00:38:5639.3462-105.3061185019760Clb=4.6m/s t=-60.8C h=4.7% p=55.6hPa 403.000 MHz Type=RS41-SGP ser=U3510459 Radiosonde
KF0FCVU35104592022-12-07 00:38:0739.348-105.3111045619617Clb=5.5m/s t=-59.7C h=4.6% p=56.9hPa 403.000 MHz Type=RS41-SGP ser=U3510459 Radiosonde
KF0FCVU35104592022-12-07 00:37:1639.3486-105.317887619488Clb=2.8m/s t=-60.2C h=4.6% p=58.1hPa 403.000 MHz Type=RS41-SGP ser=U3510459 Radiosonde
KF0FCVU35104592022-12-07 00:36:2439.3484-105.324867619396Clb=3.5m/s t=-61.1C h=4.9% p=58.9hPa 403.000 MHz Type=RS41-SGP ser=U3510459 Radiosonde
KF0FCVU35104592022-12-07 00:35:3339.3471-105.331707419291Clb=4.4m/s t=-61.2C h=4.9% p=60.0hPa 403.000 MHz Type=RS41-SGP ser=U3510459 Radiosonde
KF0FCVU35104592022-12-07 00:34:4439.3453-105.339767619175Clb=4.9m/s t=-61.1C h=5.1% p=61.1hPa 403.000 MHz Type=RS41-SGP ser=U3510459 Radiosonde
KF0FCVU35104592022-12-07 00:33:5439.3444-105.346847819040Clb=4.1m/s t=-60.3C h=5.1% p=62.4hPa 403.000 MHz Type=RS41-SGP ser=U3510459 Radiosonde
KF0FCVU35104592022-12-07 00:33:0039.3435-105.354808118888Clb=4.4m/s t=-59.0C h=5.2% p=63.9hPa 403.000 MHz Type=RS41-SGP ser=U3510459 Radiosonde
KF0FCVU35104592022-12-07 00:32:0339.3423-105.362698018716Clb=6.4m/s t=-58.5C h=5.2% p=65.7hPa 403.000 MHz Type=RS41-SGP ser=U3510459 Radiosonde
KF0FCVU35104592022-12-07 00:31:1039.3405-105.3718010618541Clb=6.4m/s t=-62.6C h=6.2% p=67.5hPa 403.000 MHz Type=RS41-SGP ser=U3510459 Radiosonde
KF0FCVU35104592022-12-07 00:30:2039.3397-105.3828311518371Clb=5.6m/s t=-63.0C h=6.3% p=69.4hPa 403.000 MHz Type=RS41-SGP ser=U3510459 Radiosonde
KF0FCVU35104592022-12-07 00:29:2839.3395-105.3939111318242Clb=3.6m/s t=-63.0C h=6.5% p=70.9hPa 403.000 MHz Type=RS41-SGP ser=U3510459 Radiosonde
KF0FCVU35104592022-12-07 00:28:3639.3399-105.4059111118149Clb=3.4m/s t=-64.3C h=6.4% p=72.0hPa 403.000 MHz Type=RS41-SGP ser=U3510459 Radiosonde
KF0FCVU35104592022-12-07 00:27:5139.3395-105.4178112218076Clb=1.3m/s t=-65.5C h=7.0% p=72.9hPa 403.000 MHz Type=RS41-SGP ser=U3510459 Radiosonde
KF0FCVU35104592022-12-07 00:27:4239.3289-105.5147911117028Clb=4.8m/s t=-66.3C h=8.4% p=86.7hPa 403.000 MHz Type=RS41-SGP ser=U3510459 Radiosonde
KF0FCVU35104592022-12-07 00:27:1439.3272-105.5258012016890Clb=5.0m/s t=-65.6C h=8.4% p=88.7hPa 403.000 MHz Type=RS41-SGP ser=U3510459 Radiosonde
KF0FCVU35104592022-12-07 00:27:0039.3254-105.5377811316739Clb=4.8m/s t=-66.0C h=8.0% p=90.9hPa 403.000 MHz Type=RS41-SGP ser=U3510459 Radiosonde
KF0FCVU35104592022-12-07 00:26:5839.324-105.5478210616584Clb=4.6m/s t=-65.4C h=8.0% p=93.2hPa 403.000 MHz Type=RS41-SGP ser=U3510459 Radiosonde
KF0FCVU35104592022-12-07 00:26:5639.3228-105.5588211116431Clb=4.5m/s t=-64.8C h=7.9% p=95.6hPa 403.000 MHz Type=RS41-SGP ser=U3510459 Radiosonde
KF0FCVU35104592022-12-07 00:26:1939.322-105.5698911516290Clb=4.8m/s t=-64.1C h=7.9% p=97.8hPa 403.000 MHz Type=RS41-SGP ser=U3510459 Radiosonde
KF0FCVU35104592022-12-07 00:25:2739.3217-105.588512016146Clb=5.0m/s t=-63.9C h=7.6% p=100.1hPa 403.000 MHz Type=RS41-SGP ser=U3510459 Radiosonde
KF0FCVU35104592022-12-07 00:24:3539.3203-105.5927811316009Clb=4.6m/s t=-63.6C h=-1.0% p=102.3hPa 403.000 MHz Type=RS41-SGP ser=U3510459 Radiosonde
KF0FCVU35104592022-12-07 00:23:4139.3186-105.6038412815876Clb=2.7m/s t=-63.6C h=-1.0% p=104.5hPa 403.000 MHz Type=RS41-SGP ser=U3510459 Radiosonde
KF0FCVU35104592022-12-07 00:22:4539.3167-105.6187812415738Clb=3.6m/s t=-63.2C h=-1.0% p=106.8hPa 403.000 MHz Type=RS41-SGP ser=U3510459 Radiosonde
KF0FCVU35104592022-12-07 00:21:5239.3151-105.6287912415637Clb=2.9m/s t=-62.6C h=-1.0% p=108.5hPa 403.000 MHz Type=RS41-SGP ser=U3510459 Radiosonde
KF0FCVU35104592022-12-07 00:20:0639.3115-105.6577913015368Clb=3.8m/s t=-63.0C h=-1.0% p=113.3hPa 403.000 MHz Type=RS41-SGP ser=U3510459 Radiosonde
KF0FCVU35104592022-12-07 00:19:1339.3104-105.6668013515286Clb=3.9m/s t=-62.8C h=-1.0% p=114.8hPa 403.000 MHz Type=RS41-SGP ser=U3510459 Radiosonde
KF0FCVU35104592022-12-07 00:18:1939.3081-105.687714815160Clb=3.1m/s t=-273.0C h=-1.0% p=117.2hPa 403.000 MHz Type=RS41-SGP ser=U3510459 Radiosonde
KF0FCVU35104592022-12-07 00:17:2439.3044-105.6997215014988Clb=4.0m/s t=-273.0C h=-1.0% p=120.5hPa 403.000 MHz Type=RS41-SGP ser=U3510459 Radiosonde
KF0FCVU35104592022-12-07 00:16:2939.3016-105.717216914894Clb=5.1m/s t=-273.0C h=-1.0% p=-1.0hPa 403.000 MHz Type=RS41-SGP ser=U3510459 Radiosonde
KF0FCVU35104592022-12-07 00:15:3639.2976-105.7246715914744Clb=4.7m/s t=-273.0C h=-1.0% p=-1.0hPa 403.000 MHz Type=RS41-SGP ser=U3510459 Radiosonde
KF0FCVU35104592022-12-07 00:14:4439.2913-105.7416414414565Clb=5.0m/s t=-273.0C h=-1.0% p=-1.0hPa 403.000 MHz Type=RS41-SGP ser=U3510459 Radiosonde
KF0FCVU35104592022-12-07 00:13:5139.2874-105.7516713914436Clb=4.9m/s t=-273.0C h=-1.0% p=-1.0hPa 403.000 MHz Type=RS41 ser=U3510459 Radiosonde